Tiempo atmosférico en la estación meteorológica de Almazul, Soria (1000 m.)



Fecha
DESCASC
Temp. máxima en grados centígrados (hora)
DESCASC
Temp. mínima en grados centígrados (hora)
DESCASC
Temp. media en grados centígrados
DESCASC
Racha de viento máxima en m/sg (hora)
DESCASC
Velocidad máxima media en intervalos de 10 minutos(hora)
DESCASC
Precipitaciones diarias en mm
DESCASC
Precipitaciones de 00:00 a 06:00 en mm
DESCASC
Precipitaciones de 06:00 a 12:00 en mm
DESCASC
Precipitaciones de 12:00 a 18:00 en mm
DESCASC
Precipitaciones de 18:00 a 24:00 en mm
DESCASC
06-12-2018 12 (14:50) 3.7 (23:10) 7.9 10 (16:00) 6.94 (15:20) 0 0 0 0 0
05-12-2018 17.2 (15:00) 1.4 (08:30) 9.3 9.44 (17:00) 6.11 (17:00) 0.2 0 0.2 0 0
04-12-2018 13.2 (17:10) 5.8 (23:59) 9.5 3.89 (15:50) 3.06 (16:00) 0 0 0 0 0
03-12-2018 12.6 (14:50) 4.2 (00:00) 8.4 9.17 (08:40) 6.67 (15:00) 0 0 0 0 0
02-12-2018 12.9 (15:40) 4.4 (00:00) 8.6 13.33 (02:30) 10 (02:20) 0 0 0 0 0
01-12-2018 8.6 (15:20) -1 (-00:0) 3.8 13.61 (18:00) 9.44 (18:10) 0 0 0 0 0
30-11-2018 6.6 (15:30) -0.4 (00:00) 3.1 11.67 (14:50) 8.33 (15:50) 0.2 0.2 0 0 0
29-11-2018 13.4 (14:30) -1.5 (-00:0) 5.9 7.5 (13:30) 5.83 (15:10) 0.2 0 0 0 0.2
28-11-2018 12.5 (14:10) 1.3 (00:00) 6.9 8.33 (13:10) 5 (14:30) 0 0 0 0 0
27-11-2018 10.5 (15:40) 0.7 (00:00) 5.6 8.06 (15:00) 5.28 (14:50) 0 0 0 0 0
25-11-2018 10.4 (15:30) 3.7 (00:00) 7 14.72 (02:20) 10.28 (02:20) 5 1.4 1.2 0 2.4
24-11-2018 8.1 (16:10) -0.1 (00:00) 4 10.28 (17:50) 8.33 (17:50) 0 0 0 0 0
23-11-2018 8.5 (15:20) 0.9 (00:00) 4.7 11.11 (07:10) 7.22 (15:30) 4.8 1.8 3 0 0
22-11-2018 9.7 (15:10) 1.7 (00:00) 5.7 11.67 (17:20) 7.22 (17:20) 0.4 0 0 0.4 0
21-11-2018 8.5 (16:40) 3 (00:00) 5.8 10.83 (13:50) 6.39 (11:10) 1.4 0.4 0 1 0
20-11-2018 9 (11:50) 4.9 (00:00) 7 14.17 (12:00) 8.61 (12:00) 6 0.8 3 1.6 0.6
19-11-2018 11.3 (15:50) 4.9 (00:00) 8.1 8.61 (00:10) 6.39 (00:10) 1 0 0 0 1
18-11-2018 9.1 (13:40) 4.2 (00:00) 6.7 12.5 (16:20) 9.44 (16:10) 1.4 0 0 0 1.4
17-11-2018 16.8 (15:50) 4.9 (00:00) 10.8 6.94 (02:00) 5 (01:50) 0.2 0 0 0.2 0
16-11-2018 15 (12:50) 8.6 (00:00) 11.8 8.89 (11:00) 5.83 (19:00) 0 0 0 0 0
15-11-2018 14.2 (14:30) 6.8 (00:00) 10.5 8.89 (00:50) 5.83 (00:50) 0 0 0 0 0
14-11-2018 15.2 (15:20) 6.7 (00:00) 10.9 9.44 (20:20) 6.67 (20:20) 0 0 0 0 0
13-11-2018 14.9 (13:10) 6.8 (00:00) 10.8 7.5 (15:50) 5.56 (16:00) 0 0 0 0 0
12-11-2018 16 (14:50) 8.2 (00:00) 12.1 9.72 (00:20) 6.94 (00:10) 0 0 0 0 0
11-11-2018 14.1 (13:20) 8.5 (00:00) 11.3 13.33 (14:20) 10.28 (14:00) 0 0 0 0 0
10-11-2018 11.1 (13:00) 6.3 (00:00) 8.7 16.67 (15:00) 11.67 (15:00) 2.6 0 0 1.6 1
09-11-2018 7.6 (16:50) 2.8 (00:00) 5.2 16.11 (13:00) 10.83 (13:20) 0.4 0.4 0 0 0

Gráficas

Temp. máximas Temp. mínimas Temp. medias Precipitaciones Rachas de viento máximas Velocidades máximas media en intervalos de 10 minutos

Datos horarios

Fecha y hora oficial Temperatura (ºC) Velocidad del viento (km/h) Dirección del viento Racha (km/h) Dirección de racha Precipitación (mm) Presión (hPa) Tendencia (hPa) Humedad (%)
2018-12-08 23:00:00 4 8 Nordeste 11 Nordeste 0 -- -- 81
2018-12-08 22:00:00 4.7 3 Norte 12 Norte 0 -- -- 79
2018-12-08 21:00:00 6.3 10 Norte 22 Norte 0 -- -- 71
2018-12-08 20:00:00 6.3 8 Norte 17 Norte 0 -- -- 74
2018-12-08 19:00:00 6.9 5 Norte 15 Nordeste 0 -- -- 73
2018-12-08 18:00:00 6.9 5 Sudoeste 16 Noroeste 0 -- -- 72
2018-12-08 17:00:00 9.4 14 Oeste 28 Noroeste 0 -- -- 64
2018-12-08 16:00:00 10.5 19 Noroeste 29 Noroeste 0 -- -- 62
2018-12-08 15:00:00 10.1 15 Noroeste 29 Noroeste 0 -- -- 64
2018-12-08 14:00:00 9 17 Noroeste 35 Norte 0 -- -- 70
2018-12-08 13:00:00 7.5 24 Noroeste 34 Noroeste 0 -- -- 76
2018-12-08 12:00:00 6.7 23 Noroeste 30 Noroeste 0 -- -- 80
2018-12-08 11:00:00 6.1 13 Norte 23 Norte 0 -- -- 87
2018-12-08 10:00:00 5.6 17 Norte 26 Norte 0 -- -- 90
2018-12-08 09:00:00 4.5 15 Norte 22 Norte 0 -- -- 94
2018-12-08 08:00:00 4.4 10 Noroeste 17 Oeste 0 -- -- 95
2018-12-08 07:00:00 5.1 12 Norte 20 Noroeste 0 -- -- 95
2018-12-08 06:00:00 5.6 10 Noroeste 27 Noroeste 0 -- -- 92
2018-12-08 05:00:00 6.6 15 Noroeste 23 Noroeste 0 -- -- 92
2018-12-08 04:00:00 6.6 11 Noroeste 20 Noroeste 0 -- -- 94
2018-12-08 03:00:00 6.6 13 Noroeste 21 Noroeste 0 -- -- 94
2018-12-08 02:00:00 6.5 15 Noroeste 27 Noroeste 0 -- -- 94
2018-12-08 01:00:00 6.7 21 Noroeste 30 Noroeste 0 -- -- 94
2018-12-08 00:00:00 6.5 21 Noroeste 34 Noroeste 0 -- -- 94
2018-12-07 23:00:00 6.8 25 Noroeste 36 Noroeste 0 -- -- 90
2018-12-07 22:00:00 6.9 28 Noroeste 36 Noroeste 0 -- -- 88
2018-12-07 21:00:00 7.4 29 Noroeste 47 Noroeste 0 -- -- 87
2018-12-07 20:00:00 7.8 30 Noroeste 45 Noroeste 0 -- -- 85
2018-12-07 19:00:00 7.8 28 Noroeste 46 Noroeste 0 -- -- 83
2018-12-07 18:00:00 8.8 28 Noroeste 37 Noroeste 0 -- -- 79
2018-12-07 17:00:00 10.5 27 Noroeste 45 Noroeste 0 -- -- 71
2018-12-07 16:00:00 11.4 33 Noroeste 49 Noroeste 0 -- -- 65
2018-12-07 15:00:00 10.9 26 Noroeste 44 Noroeste 0 -- -- 69
2018-12-07 14:00:00 9.6 19 Noroeste 33 Noroeste 0 -- -- 72
2018-12-07 13:00:00 8.2 25 Noroeste 51 Noroeste 0 -- -- 77
2018-12-07 12:00:00 8.1 8 Noroeste 29 Norte 0 -- -- 77
2018-12-07 11:00:00 6.1 12 Norte 19 Norte 0 -- -- 85
2018-12-07 10:00:00 3.9 10 Noroeste 20 Noroeste 0 -- -- 92
2018-12-07 09:00:00 3 9 Norte 18 Norte 0 -- -- 93
2018-12-07 08:00:00 2.8 6 Noroeste 14 Noroeste 0 -- -- 94
2018-12-07 07:00:00 2.5 9 Noroeste 20 Noroeste 0 -- -- 95
2018-12-07 06:00:00 2.6 3 Norte 16 Norte 0 -- -- 94
2018-12-07 05:00:00 2.8 9 Norte 18 Norte 0 -- -- 95
2018-12-07 04:00:00 3 11 Norte 17 Norte 0 -- -- 93
2018-12-07 03:00:00 3.3 13 Norte 22 Norte 0 -- -- 93
2018-12-07 02:00:00 3.8 15 Noroeste 24 Norte 0 -- -- 92
2018-12-07 01:00:00 3.1 11 Norte 22 Noroeste 0 -- -- 95
2018-12-07 00:00:00 4 15 Noroeste 32 Noroeste 0 -- -- 94
2018-12-06 23:00:00 3.8 19 Noroeste 26 Noroeste 0 -- -- 96
2018-12-06 22:00:00 4 12 Noroeste 21 Noroeste 0 -- -- 96
2018-12-06 21:00:00 4.5 8 Norte 21 Norte 0 -- -- 94
2018-12-06 20:00:00 5 10 Norte 22 Noroeste 0 -- -- 91
2018-12-06 19:00:00 6.7 13 Noroeste 27 Noroeste 0 -- -- 88
2018-12-06 18:00:00 8.1 18 Noroeste 28 Noroeste 0 -- -- 84
2018-12-06 17:00:00 10.7 19 Noroeste 33 Noroeste 0 -- -- 74
2018-12-06 16:00:00 11.4 22 Noroeste 36 Oeste 0 -- -- 73
2018-12-06 15:00:00 12 22 Noroeste 33 Noroeste 0 -- -- 72
2018-12-06 14:00:00 11.4 23 Noroeste 33 Oeste 0 -- -- 76
2018-12-06 13:00:00 10.9 15 Noroeste 26 Noroeste 0 -- -- 82
2018-12-06 12:00:00 9.1 14 Noroeste 22 Noroeste 0 -- -- 88
2018-12-06 11:00:00 7.9 8 Norte 15 Norte 0 -- -- 93
2018-12-06 10:00:00 7.3 9 Norte 19 Norte 0 -- -- 95
2018-12-06 09:00:00 6 11 Norte 19 Norte 0 -- -- 97
2018-12-06 08:00:00 4.6 7 Norte 17 Norte 0 -- -- 96
2018-12-06 07:00:00 5.4 12 Norte 29 Norte 0 -- -- 92
2018-12-06 06:00:00 6.2 18 Norte 28 Norte 0 -- -- 92
2018-12-06 05:00:00 4.9 10 Norte 15 Norte 0 -- -- 95
2018-12-06 04:00:00 5.1 5 Norte 16 Norte 0 -- -- 94
2018-12-06 03:00:00 4.9 0 Calma 17 Norte 0 -- -- 94
2018-12-06 02:00:00 6.1 11 Noroeste 32 Noroeste 0 -- -- 88
2018-12-06 01:00:00 5.8 24 Noroeste 31 Noroeste 0 -- -- 90
2018-12-06 00:00:00 5.7 9 Norte 19 Noroeste 0 -- -- 89
2018-12-05 23:00:00 7.4 14 Noroeste 26 Noroeste 0 -- -- 81
2018-12-05 22:00:00 6.6 14 Noroeste 20 Noroeste 0 -- -- 81
2018-12-05 21:00:00 7.7 5 Norte 8 Norte 0 -- -- 77
2018-12-05 20:00:00 9.5 4 Norte 9 Nordeste 0 -- -- 73
2018-12-05 19:00:00 11.6 3 Sudoeste 11 Oeste 0 -- -- 66
2018-12-05 18:00:00 12.7 3 Norte 24 Oeste 0 -- -- 62
2018-12-05 17:00:00 15.9 22 Oeste 34 Oeste 0 -- -- 49
2018-12-05 16:00:00 17.1 18 Oeste 30 Oeste 0 -- -- 49
2018-12-05 15:00:00 17.2 18 Oeste 24 Oeste 0 -- -- 51
2018-12-05 14:00:00 15.6 10 Noroeste 18 Oeste 0 -- -- 62
2018-12-05 13:00:00 11.9 7 Nordeste 12 Nordeste 0 -- -- 73
2018-12-05 12:00:00 10.5 2 Este 8 Nordeste 0 -- -- 82
2018-12-05 11:00:00 7.9 7 Nordeste 10 Norte 0 -- -- 91
2018-12-05 10:00:00 5.4 5 Nordeste 10 Nordeste 0 -- -- 96
2018-12-05 09:00:00 2.6 9 Nordeste 12 Nordeste 0.2 -- -- 98
2018-12-05 08:00:00 2.7 4 Nordeste 9 Norte 0 -- -- 100
2018-12-05 07:00:00 2.3 6 Norte 9 Norte 0 -- -- 100
2018-12-05 06:00:00 2.9 5 Nordeste 12 Norte 0 -- -- 100
2018-12-05 05:00:00 4.3 2 Norte 10 Nordeste 0 -- -- 98
2018-12-05 04:00:00 4.3 7 Norte 15 Norte 0 -- -- 100
2018-12-05 03:00:00 3.9 2 Nordeste 7 Nordeste 0 -- -- 99
2018-12-05 02:00:00 4.7 0 Calma 10 Norte 0 -- -- 99
2018-12-05 01:00:00 4.9 6 Norte 9 Norte 0 -- -- 96
2018-12-05 00:00:00 5.8 4 Norte 6 Norte 0 -- -- 98
2018-12-04 23:00:00 6.2 3 Este 7 Este 0 -- -- 97
2018-12-04 22:00:00 7.3 0 Calma 6 Nordeste 0 -- -- 99
2018-12-04 21:00:00 7.1 0 Calma 4 Norte 0 -- -- 99
2018-12-04 20:00:00 8 0 Calma 2 Sur 0 -- -- 98
2018-12-04 19:00:00 8.3 3 Norte 9 Norte 0 -- -- 96
2018-12-04 18:00:00 9.8 5 Norte 8 Norte 0 -- -- 91
2018-12-04 17:00:00 13.1 3 Nordeste 12 Nordeste 0 -- -- 81
2018-12-04 16:00:00 12.6 11 Nordeste 14 Norte 0 -- -- 83
2018-12-04 15:00:00 12.7 8 Nordeste 13 Nordeste 0 -- -- 83
2018-12-04 14:00:00 11.8 3 Nordeste 11 Noroeste 0 -- -- 86
2018-12-04 13:00:00 10.2 4 Noroeste 8 Noroeste 0 -- -- 95
2018-12-04 12:00:00 9.2 3 Noroeste 6 Oeste 0 -- -- 98
2018-12-04 11:00:00 8.6 3 Sur 8 Sur 0 -- -- 98
2018-12-04 10:00:00 8.4 4 Sudoeste 6 Sudoeste 0 -- -- 98
2018-12-04 09:00:00 8.3 3 Oeste 6 Oeste 0 -- -- 98
2018-12-04 08:00:00 8.6 0 Calma 6 Noroeste 0 -- -- 97
2018-12-04 07:00:00 8.6 0 Calma 6 Oeste 0 -- -- 97
2018-12-04 06:00:00 8.8 5 Oeste 11 Oeste 0 -- -- 97
2018-12-04 05:00:00 8.3 3 Norte 6 Oeste 0 -- -- 98
2018-12-04 04:00:00 7.9 0 Calma 4 Nordeste 0 -- -- 98
2018-12-04 03:00:00 7.9 0 Calma 4 Sudeste 0 -- -- 98
2018-12-04 02:00:00 7.4 0 Calma 6 Noroeste 0 -- -- 97
2018-12-04 01:00:00 6.8 4 Nordeste 8 Norte 0 -- -- 98
2018-12-04 00:00:00 7.3 8 Nordeste 16 Nordeste 0 -- -- 96
2018-12-03 23:00:00 8.1 14 Nordeste 21 Norte 0 -- -- 94
2018-12-03 22:00:00 8.2 12 Nordeste 20 Norte 0 -- -- 95
2018-12-03 21:00:00 8.2 10 Norte 27 Norte 0 -- -- 92
2018-12-03 20:00:00 8.1 9 Nordeste 21 Norte 0 -- -- 92
2018-12-03 19:00:00 9.5 15 Norte 25 Noroeste 0 -- -- 89
2018-12-03 18:00:00 9.8 19 Noroeste 29 Noroeste 0 -- -- 87
2018-12-03 17:00:00 10.8 4 Norte 24 Noroeste 0 -- -- 83
2018-12-03 16:00:00 11.8 13 Noroeste 30 Noroeste 0 -- -- 79
2018-12-03 15:00:00 12.2 24 Noroeste 33 Noroeste 0 -- -- 78
2018-12-03 14:00:00 10.5 17 Noroeste 26 Noroeste 0 -- -- 81
2018-12-03 13:00:00 9.4 11 Oeste 21 Oeste 0 -- -- 84
2018-12-03 12:00:00 9 16 Noroeste 28 Noroeste 0 -- -- 84
2018-12-03 11:00:00 7.8 10 Norte 27 Noroeste 0 -- -- 88
2018-12-03 10:00:00 7 18 Noroeste 26 Noroeste 0 -- -- 92
2018-12-03 09:00:00 6.7 16 Norte 33 Noroeste 0 -- -- 92
2018-12-03 08:00:00 6.2 13 Nordeste 24 Norte 0 -- -- 92
2018-12-03 07:00:00 6.4 12 Nordeste 23 Norte 0 -- -- 90
2018-12-03 06:00:00 6.5 12 Norte 27 Norte 0 -- -- 89
2018-12-03 05:00:00 6.5 6 Norte 23 Norte 0 -- -- 88
2018-12-03 04:00:00 6 11 Nordeste 20 Nordeste 0 -- -- 90
2018-12-03 03:00:00 5 3 Nordeste 9 Este 0 -- -- 93
2018-12-03 02:00:00 4.6 2 Sudeste 15 Oeste 0 -- -- 92
2018-12-03 01:00:00 4.8 7 Nordeste 19 Nordeste 0 -- -- 91
2018-12-03 00:00:00 4.6 6 Norte 15 Nordeste 0 -- -- 92
2018-12-02 23:00:00 5.6 4 Norte 11 Nordeste 0 -- -- 88
2018-12-02 22:00:00 6.1 3 Sur 16 Noroeste 0 -- -- 84
2018-12-02 21:00:00 6.6 6 Noroeste 22 Noroeste 0 -- -- 77
2018-12-02 20:00:00 8 16 Noroeste 27 Noroeste 0 -- -- 71
2018-12-02 19:00:00 8.1 11 Norte 27 Noroeste 0 -- -- 73
2018-12-02 18:00:00 9.9 15 Noroeste 36 Noroeste 0 -- -- 66
2018-12-02 17:00:00 11.9 24 Noroeste 38 Noroeste 0 -- -- 56
2018-12-02 16:00:00 12.7 26 Oeste 38 Oeste 0 -- -- 54
2018-12-02 15:00:00 11.5 9 Noroeste 24 Oeste 0 -- -- 64
2018-12-02 14:00:00 10.2 14 Oeste 23 Oeste 0 -- -- 67
2018-12-02 13:00:00 9.4 10 Oeste 23 Noroeste 0 -- -- 73
2018-12-02 12:00:00 9.4 14 Oeste 21 Oeste 0 -- -- 70
2018-12-02 11:00:00 8.3 9 Oeste 14 Oeste 0 -- -- 76
2018-12-02 10:00:00 7 5 Sudoeste 10 Oeste 0 -- -- 80
2018-12-02 09:00:00 6.5 3 Noroeste 23 Nordeste 0 -- -- 83
2018-12-02 08:00:00 5.4 14 Nordeste 23 Norte 0 -- -- 88
2018-12-02 07:00:00 6 14 Norte 18 Norte 0 -- -- 87
2018-12-02 06:00:00 6.1 10 Norte 22 Noroeste 0 -- -- 87
2018-12-02 05:00:00 6 11 Norte 21 Noroeste 0 -- -- 87
2018-12-02 04:00:00 5.6 5 Norte 30 Norte 0 -- -- 88
2018-12-02 03:00:00 6.2 22 Noroeste 48 Noroeste 0 -- -- 86
2018-12-02 02:00:00 6.6 27 Noroeste 40 Noroeste 0 -- -- 86
2018-12-02 01:00:00 6.8 10 Noroeste 23 Noroeste 0 -- -- 85
2018-12-02 00:00:00 7 17 Noroeste 35 Noroeste 0 -- -- 85
2018-12-01 23:00:00 6.8 3 Norte 29 Oeste 0 -- -- 84
2018-12-01 22:00:00 6.6 10 Noroeste 22 Noroeste 0 -- -- 84
2018-12-01 21:00:00 6 10 Norte 26 Norte 0 -- -- 85
2018-12-01 20:00:00 6 7 Nordeste 31 Noroeste 0 -- -- 84
2018-12-01 19:00:00 6.7 24 Noroeste 47 Noroeste 0 -- -- 80
2018-12-01 18:00:00 7 33 Noroeste 49 Noroeste 0 -- -- 76
2018-12-01 17:00:00 8 19 Noroeste 40 Noroeste 0 -- -- 70
2018-12-01 16:00:00 8.2 24 Noroeste 37 Noroeste 0 -- -- 66
2018-12-01 15:00:00 8.3 24 Noroeste 39 Noroeste 0 -- -- 68
2018-12-01 14:00:00 6.7 17 Noroeste 30 Noroeste 0 -- -- 77
2018-12-01 13:00:00 6.2 13 Noroeste 31 Noroeste 0 -- -- 82
2018-12-01 12:00:00 5.2 15 Noroeste 25 Noroeste 0 -- -- 86
2018-12-01 11:00:00 4.6 15 Noroeste 24 Noroeste 0 -- -- 89
2018-12-01 10:00:00 4.1 11 Noroeste 21 Noroeste 0 -- -- 90
2018-12-01 09:00:00 3.2 3 Noroeste 13 Noroeste 0 -- -- 89
2018-12-01 08:00:00 2.5 2 Oeste 9 Norte 0 -- -- 90
2018-12-01 07:00:00 2.3 5 Norte 9 Norte 0 -- -- 90
2018-12-01 06:00:00 1.4 0 Calma 14 Noroeste 0 -- -- 96
2018-12-01 05:00:00 0.8 3 Este 10 Noroeste 0 -- -- 94
2018-12-01 04:00:00 0.4 2 Noroeste 9 Noroeste 0 -- -- 95
2018-12-01 03:00:00 -0.5 5 Norte 8 Norte 0 -- -- 95
2018-12-01 02:00:00 -0.2 0 Calma 8 Este 0 -- -- 92
2018-12-01 01:00:00 -0.8 0 Calma 5 Este 0 -- -- 94
2018-12-01 00:00:00 0.1 3 Sudeste 11 Este 0 -- -- 92
2018-11-30 23:00:00 0.1 5 Este 13 Norte 0 -- -- 91
2018-11-30 22:00:00 1.1 9 Nordeste 15 Sudeste 0 -- -- 89
2018-11-30 21:00:00 1.8 11 Norte 15 Noroeste 0 -- -- 86
2018-11-30 20:00:00 2.2 12 Norte 23 Noroeste 0 -- -- 84
2018-11-30 19:00:00 3.4 14 Noroeste 29 Noroeste 0 -- -- 79
2018-11-30 18:00:00 4.3 17 Noroeste 32 Noroeste 0 -- -- 77
2018-11-30 17:00:00 6.3 24 Noroeste 42 Noroeste 0 -- -- 68
2018-11-30 16:00:00 6.4 30 Noroeste 41 Noroeste 0 -- -- 70
2018-11-30 15:00:00 6.3 24 Noroeste 42 Noroeste 0 -- -- 72
2018-11-30 14:00:00 6.2 27 Noroeste 38 Noroeste 0 -- -- 75
2018-11-30 13:00:00 6.4 21 Noroeste 36 Noroeste 0 -- -- 74
2018-11-30 12:00:00 6 23 Noroeste 33 Noroeste 0 -- -- 80
2018-11-30 11:00:00 4.9 26 Noroeste 38 Noroeste 0 -- -- 84
2018-11-30 10:00:00 3.5 22 Noroeste 31 Noroeste 0 -- -- 88
2018-11-30 09:00:00 2.9 12 Norte 22 Norte 0 -- -- 92
2018-11-30 08:00:00 2.6 17 Nordeste 25 Noroeste 0 -- -- 93
2018-11-30 07:00:00 3.7 20 Noroeste 28 Noroeste 0 -- -- 92
2018-11-30 06:00:00 4.2 17 Noroeste 26 Noroeste 0 -- -- 95
2018-11-30 05:00:00 4.5 12 Noroeste 17 Noroeste 0.2 -- -- 96
2018-11-30 04:00:00 4.1 4 Sudeste 10 Noroeste 0 -- -- 97
2018-11-30 03:00:00 4.3 3 Noroeste 6 Oeste 0 -- -- 96
2018-11-30 02:00:00 4.5 0 Calma 4 Nordeste 0 -- -- 94
2018-11-30 01:00:00 4.7 3 Nordeste 14 Norte 0 -- -- 93
2018-11-30 00:00:00 5.1 5 Norte 10 Oeste 0 -- -- 88
2018-11-29 23:00:00 5.4 6 Sur 24 Noroeste 0.2 -- -- 85
2018-11-29 22:00:00 6.3 10 Noroeste 20 Noroeste 0 -- -- 68
2018-11-29 21:00:00 7 9 Oeste 13 Sudoeste 0 -- -- 59
2018-11-29 20:00:00 7.3 7 Sudoeste 12 Sudoeste 0 -- -- 47
2018-11-29 19:00:00 8.4 3 Sudoeste 11 Oeste 0 -- -- 48
2018-11-29 18:00:00 9.4 6 Oeste 20 Oeste 0 -- -- 45
2018-11-29 17:00:00 10.1 6 Este 25 Oeste 0 -- -- 44
2018-11-29 16:00:00 12.6 10 Oeste 26 Sudoeste 0 -- -- 37
2018-11-29 15:00:00 13 17 Sudoeste 25 Sudoeste 0 -- -- 38
2018-11-29 14:00:00 12.5 18 Sudoeste 27 Oeste 0 -- -- 45
2018-11-29 13:00:00 11 9 Sudoeste 26 Sudoeste 0 -- -- 52
2018-11-29 12:00:00 9 18 Sudoeste 22 Sudoeste 0 -- -- 58
2018-11-29 11:00:00 7 0 Calma 8 Norte 0 -- -- 77
2018-11-29 10:00:00 6.1 0 Calma 4 Noroeste 0 -- -- 74
2018-11-29 09:00:00 -0.3 0 Calma 5 Norte 0 -- -- 94
2018-11-29 08:00:00 -0.1 0 Calma 12 Norte 0 -- -- 91
2018-11-29 07:00:00 -1 3 Sudeste 8 Nordeste 0 -- -- 94
2018-11-29 06:00:00 0.3 2 Nordeste 12 Norte 0 -- -- 89
2018-11-29 05:00:00 1 3 Sudeste 6 Sudeste 0 -- -- 90
2018-11-29 04:00:00 1.4 4 Sudeste 6 Sudeste 0 -- -- 91
2018-11-29 03:00:00 2 5 Sur 8 Sur 0 -- -- 88
2018-11-29 02:00:00 0.5 0 Calma 4 Sudeste 0 -- -- 94
2018-11-29 01:00:00 1.4 2 Norte 5 Norte 0 -- -- 92
2018-11-29 00:00:00 2.4 3 Sudeste 7 Sudeste 0 -- -- 89
2018-11-28 23:00:00 3 0 Calma 7 Sudoeste 0 -- -- 83
2018-11-28 22:00:00 4.5 3 Oeste 11 Oeste 0 -- -- 79
2018-11-28 21:00:00 4.2 5 Oeste 10 Oeste 0 -- -- 75
2018-11-28 14:00:00 -- -- -- -- -- -- -- -- --
2018-11-28 13:00:00 -- -- -- -- -- -- -- -- --
2018-11-28 12:00:00 -- -- -- -- -- -- -- -- --
2018-11-28 11:00:00 -- -- -- -- -- -- -- -- --
2018-11-28 10:00:00 6.5 2 Noroeste 10 Noroeste 0 -- -- 68
2018-11-28 09:00:00 3.4 5 Norte 14 Noroeste 0 -- -- 74
2018-11-28 08:00:00 1.5 4 Noroeste 7 Norte 0 -- -- 81
2018-11-28 07:00:00 1.8 5 Norte 15 Noroeste 0 -- -- 80
2018-11-28 06:00:00 3 3 Oeste 11 Oeste 0 -- -- 75
2018-11-28 05:00:00 2.6 0 Calma 8 Sur 0 -- -- 81
2018-11-28 04:00:00 1.7 4 Sudoeste 15 Oeste 0 -- -- 90
2018-11-28 03:00:00 2.1 5 Sur 10 Sur 0 -- -- 89
2018-11-28 02:00:00 2.9 3 Sudoeste 13 Noroeste 0 -- -- 84
2018-11-28 01:00:00 2.1 3 Sur 7 Sudeste 0 -- -- 86
2018-11-28 00:00:00 2.5 3 Sudoeste 12 Sudoeste 0 -- -- 83
2018-11-27 23:00:00 3.7 6 Oeste 9 Noroeste 0 -- -- 79
2018-11-27 22:00:00 2.9 3 Sur 6 Noroeste 0 -- -- 82
2018-11-27 21:00:00 4.4 3 Sudeste 10 Noroeste 0 -- -- 76
2018-11-27 20:00:00 4.4 4 Sur 8 Sur 0 -- -- 74
2018-11-27 19:00:00 5.2 4 Sur 17 Sudeste 0 -- -- 71
2018-11-27 18:00:00 6.6 10 Noroeste 24 Noroeste 0 -- -- 64
2018-11-27 17:00:00 8.6 10 Noroeste 24 Oeste 0 -- -- 53
2018-11-27 16:00:00 9.7 16 Oeste 27 Noroeste 0 -- -- 52
2018-11-27 15:00:00 10.1 18 Oeste 29 Noroeste 0 -- -- 56
2018-11-27 14:00:00 9.4 13 Oeste 25 Oeste 0 -- -- 63
2018-11-27 13:00:00 8.4 14 Noroeste 27 Noroeste 0 -- -- 64
2018-11-27 12:00:00 7 18 Noroeste 27 Noroeste 0 -- -- 69
2018-11-27 11:00:00 5.2 15 Noroeste 22 Noroeste 0 -- -- 79
2018-11-27 10:00:00 3.7 14 Norte 23 Norte 0 -- -- 85
2018-11-27 09:00:00 1.7 13 Norte 19 Norte 0 -- -- 92
2018-11-27 08:00:00 0.9 14 Norte 22 Norte 0 -- -- 96
2018-11-27 07:00:00 1.3 14 Norte 26 Noroeste 0 -- -- 95
2018-11-27 06:00:00 1.4 15 Noroeste 26 Noroeste 0 -- -- 96
2018-11-27 05:00:00 1.6 13 Noroeste 24 Oeste 0 -- -- 93
2018-11-27 04:00:00 2.5 12 Noroeste 25 Noroeste 0 -- -- 89
2018-11-27 03:00:00 3.5 16 Noroeste 23 Noroeste 0 -- -- 88
2018-11-27 02:00:00 4.1 11 Noroeste 20 Noroeste 0 -- -- 85
2018-11-27 01:00:00 2.7 5 Sudoeste 12 Noroeste 0 -- -- 90
2018-11-27 00:00:00 3.8 14 Noroeste 30 Norte 0 -- -- 85
2018-11-26 23:00:00 5 19 Noroeste 30 Noroeste 0 -- -- 77
2018-11-26 22:00:00 4.3 5 Noroeste 29 Noroeste 0 -- -- 81
2018-11-26 21:00:00 4.4 14 Norte 34 Noroeste 0 -- -- 81
2018-11-26 20:00:00 4.5 13 Norte 23 Noroeste 0 -- -- 86
2018-11-26 19:00:00 5.1 16 Noroeste 33 Noroeste 0 -- -- 83
2018-11-26 18:00:00 5.5 20 Noroeste 36 Noroeste 0 -- -- 81
2018-11-26 17:00:00 7.2 24 Noroeste 45 Noroeste 0 -- -- 72
2018-11-26 16:00:00 6.9 23 Norte 46 Norte 0 -- -- 70
2018-11-26 15:00:00 7.7 29 Norte 41 Norte 0 -- -- 70
2018-11-26 14:00:00 7 30 Noroeste 44 Noroeste 0 -- -- 74
2018-11-26 13:00:00 6.4 33 Noroeste 44 Noroeste 0 -- -- 78
2018-11-26 12:00:00 5.3 28 Noroeste 44 Noroeste 0 -- -- 82
2018-11-26 11:00:00 4 35 Noroeste 49 Noroeste 0 -- -- 85
2018-11-26 10:00:00 3 30 Noroeste 49 Noroeste 0 -- -- 88
2018-11-26 09:00:00 2.7 24 Noroeste 45 Noroeste 0.2 -- -- 91
2018-11-26 08:00:00 2.8 26 Noroeste 62 Noroeste 0 -- -- 89
2018-11-26 07:00:00 3.2 46 Noroeste 70 Oeste 0.2 -- -- 88
2018-11-26 06:00:00 4 40 Noroeste 60 Oeste 0.2 -- -- 91
2018-11-26 05:00:00 5.3 28 Noroeste 51 Noroeste 0.2 -- -- 90
2018-11-26 04:00:00 5.6 19 Oeste 29 Oeste 1.2 -- -- 99
2018-11-26 03:00:00 4.4 0 Calma 9 Sudeste 0.4 -- -- 98
2018-11-26 02:00:00 4.5 4 Este 9 Sur 0.4 -- -- 98
2018-11-26 01:00:00 4.4 6 Sur 12 Norte 1.2 -- -- 96
2018-11-26 00:00:00 4.7 6 Nordeste 12 Nordeste 1.6 -- -- 95
2018-11-25 23:00:00 5.3 6 Norte 12 Este 0.8 -- -- 88
2018-11-25 22:00:00 5 7 Norte 12 Noroeste 0 -- -- 86
2018-11-25 21:00:00 4.5 5 Norte 12 Norte 0 -- -- 87
2018-11-25 20:00:00 5.5 5 Norte 8 Norte 0 -- -- 78
2018-11-25 19:00:00 6.2 5 Norte 21 Norte 0 -- -- 74
2018-11-25 18:00:00 7.1 7 Noroeste 21 Noroeste 0 -- -- 69
2018-11-25 17:00:00 9.5 15 Noroeste 32 Noroeste 0 -- -- 60
2018-11-25 16:00:00 10.1 22 Noroeste 36 Noroeste 0 -- -- 53
2018-11-25 15:00:00 10.2 25 Noroeste 41 Oeste 0 -- -- 53
2018-11-25 14:00:00 9.4 27 Noroeste 41 Noroeste 0 -- -- 64
2018-11-25 13:00:00 8.9 28 Noroeste 43 Noroeste 0 -- -- 73
2018-11-25 12:00:00 7.1 15 Nordeste 24 Nordeste 0 -- -- 88
2018-11-25 11:00:00 7.3 13 Noroeste 20 Noroeste 0 -- -- 93
2018-11-25 10:00:00 6 14 Oeste 32 Oeste 0.4 -- -- 96
2018-11-25 09:00:00 5.5 17 Oeste 39 Oeste 0.6 -- -- 96
2018-11-25 08:00:00 5.4 28 Oeste 41 Oeste 0 -- -- 95
2018-11-25 07:00:00 4.9 23 Sudoeste 43 Sudoeste 0.2 -- -- 94
2018-11-25 06:00:00 4.8 31 Sudoeste 48 Sudoeste 0 -- -- 93
2018-11-25 05:00:00 4.3 24 Sudoeste 35 Sudoeste 0.2 -- -- 94
2018-11-25 04:00:00 4.2 25 Sudoeste 48 Sudoeste 0.4 -- -- 94
2018-11-25 03:00:00 4.1 35 Sudoeste 53 Sudoeste 0.8 -- -- 93
2018-11-25 02:00:00 4.5 33 Sudoeste 46 Sudoeste 0 -- -- 86
2018-11-25 01:00:00 4.5 33 Sudoeste 42 Sudoeste 0 -- -- 86
2018-11-25 00:00:00 3.7 18 Sudoeste 29 Sudoeste 0 -- -- 90
2018-11-24 23:00:00 2.8 13 Sur 25 Sudoeste 0 -- -- 91
2018-11-24 22:00:00 2.5 12 Sur 18 Sur 0 -- -- 92
2018-11-24 21:00:00 2.4 9 Sur 23 Sur 0 -- -- 90
2018-11-24 20:00:00 2.7 13 Sudoeste 26 Sudoeste 0 -- -- 87
2018-11-24 19:00:00 3.6 19 Sudoeste 34 Oeste 0 -- -- 83
2018-11-24 18:00:00 3.7 22 Sudoeste 37 Sudoeste 0 -- -- 85
2018-11-24 17:00:00 5.9 26 Sudoeste 35 Sudoeste 0 -- -- 76
2018-11-24 16:00:00 8 20 Sudoeste 28 Sudoeste 0 -- -- 70
2018-11-24 15:00:00 8 16 Sudoeste 25 Sudoeste 0 -- -- 72
2018-11-24 14:00:00 6.8 14 Oeste 30 Sudoeste 0 -- -- 75
2018-11-24 13:00:00 6.6 22 Sudoeste 31 Sudoeste 0 -- -- 82
2018-11-24 12:00:00 5.3 11 Sudoeste 19 Sudoeste 0 -- -- 84
2018-11-24 11:00:00 3.7 11 Sur 15 Sur 0 -- -- 89
2018-11-24 10:00:00 2.2 4 Sur 6 Sur 0 -- -- 93
2018-11-24 09:00:00 2 0 Calma 8 Sur 0 -- -- 95
2018-11-24 08:00:00 1.1 6 Sur 11 Sur 0 -- -- 97
2018-11-24 07:00:00 1 9 Sur 12 Sur 0 -- -- 96
2018-11-24 06:00:00 0.9 0 Calma 10 Sur 0 -- -- 95
2018-11-24 05:00:00 0.1 8 Sur 11 Sur 0 -- -- 94
2018-11-24 04:00:00 0.5 3 Sur 8 Sudeste 0 -- -- 92
2018-11-24 03:00:00 1.1 0 Calma 13 Nordeste 0 -- -- 89
2018-11-24 02:00:00 1 5 Norte 9 Noroeste 0 -- -- 89
2018-11-24 01:00:00 1.5 5 Norte 8 Noroeste 0 -- -- 87
2018-11-24 00:00:00 1.4 8 Noroeste 11 Oeste 0 -- -- 89
2018-11-23 23:00:00 1.1 3 Noroeste 6 Norte 0 -- -- 93
2018-11-23 22:00:00 2.1 2 Sur 5 Sur 0 -- -- 88
2018-11-23 21:00:00 2.6 3 Norte 6 Oeste 0 -- -- 85
2018-11-23 20:00:00 3.2 3 Oeste 12 Noroeste 0 -- -- 85
2018-11-23 19:00:00 4.6 11 Noroeste 19 Noroeste 0 -- -- 80
2018-11-23 18:00:00 5.3 15 Noroeste 27 Noroeste 0 -- -- 78
2018-11-23 17:00:00 7.3 17 Noroeste 31 Noroeste 0 -- -- 72
2018-11-23 16:00:00 7.4 21 Noroeste 38 Noroeste 0 -- -- 70
2018-11-23 15:00:00 7.9 21 Noroeste 40 Noroeste 0 -- -- 71
2018-11-23 14:00:00 6.9 24 Noroeste 35 Oeste 0 -- -- 73
2018-11-23 13:00:00 5.6 18 Noroeste 33 Noroeste 0 -- -- 82
2018-11-23 12:00:00 4.7 17 Noroeste 27 Noroeste 0 -- -- 88
2018-11-23 11:00:00 3.2 8 Noroeste 17 Noroeste 0 -- -- 91
2018-11-23 10:00:00 2.4 8 Norte 22 Noroeste 0.4 -- -- 95
2018-11-23 09:00:00 2.5 14 Noroeste 27 Noroeste 0.8 -- -- 94
2018-11-23 08:00:00 2.9 17 Noroeste 40 Oeste 0.6 -- -- 94
2018-11-23 07:00:00 4.4 13 Sudoeste 26 Sudoeste 1.2 -- -- 98
2018-11-23 06:00:00 4.4 14 Sur 20 Sur 0.4 -- -- 96
2018-11-23 05:00:00 4.4 10 Sur 13 Sur 0.6 -- -- 96
2018-11-23 04:00:00 4.5 8 Sur 12 Sur 0.8 -- -- 96
2018-11-23 03:00:00 4.4 8 Sur 12 Sur 0 -- -- 94
2018-11-23 02:00:00 4.3 7 Sur 9 Sur 0 -- -- 92
2018-11-23 01:00:00 4.4 4 Sur 10 Sudeste 0 -- -- 92
2018-11-23 00:00:00 4.3 9 Sur 17 Sur 0 -- -- 92
2018-11-22 23:00:00 4.8 15 Sur 19 Sur 0 -- -- 90
2018-11-22 22:00:00 4.5 13 Sur 18 Sur 0 -- -- 90
2018-11-22 21:00:00 4.4 14 Sur 17 Sur 0 -- -- 92
2018-11-22 20:00:00 4.8 14 Sur 16 Sur 0 -- -- 94
2018-11-22 19:00:00 5.3 11 Sur 14 Sur 0 -- -- 94
2018-11-22 18:00:00 5.9 9 Sur 42 Sudoeste 0.2 -- -- 91
2018-11-22 17:00:00 7.7 17 Sudoeste 28 Sudoeste 0 -- -- 77
2018-11-22 16:00:00 9.1 19 Sudoeste 23 Sudoeste 0 -- -- 70
2018-11-22 15:00:00 9.6 14 Sudoeste 26 Sudoeste 0 -- -- 73
2018-11-22 14:00:00 8.4 17 Sudoeste 28 Sudoeste 0 -- -- 77
2018-11-22 13:00:00 8.4 18 Sudoeste 26 Sudoeste 0.2 -- -- 77
2018-11-22 12:00:00 7.2 20 Sudoeste 27 Sudoeste 0 -- -- 83
2018-11-22 11:00:00 5.1 13 Sur 16 Sur 0 -- -- 91
2018-11-22 10:00:00 3.9 12 Sur 17 Sur 0 -- -- 95
2018-11-22 09:00:00 2.4 10 Sur 14 Sur 0 -- -- 98
2018-11-22 08:00:00 2.6 14 Sur 18 Sur 0 -- -- 96
2018-11-22 07:00:00 2.4 10 Sur 14 Sur 0 -- -- 95
2018-11-22 06:00:00 1.9 11 Sur 13 Sur 0 -- -- 97
2018-11-22 05:00:00 2.6 8 Sur 12 Sur 0 -- -- 96
2018-11-22 04:00:00 3 10 Sur 12 Sur 0 -- -- 95
2018-11-22 03:00:00 3.4 7 Sudeste 12 Oeste 0 -- -- 94
2018-11-22 02:00:00 3.8 11 Oeste 22 Oeste 0 -- -- 93
2018-11-22 01:00:00 2.9 8 Sur 13 Sudeste 0 -- -- 94
2018-11-22 00:00:00 3.4 4 Sur 16 Sur 0 -- -- 93
2018-11-21 23:00:00 3.1 15 Sur 23 Sudoeste 0 -- -- 94
2018-11-21 22:00:00 3.9 9 Sudeste 12 Sudeste 0 -- -- 92
2018-11-21 21:00:00 3.9 5 Sudeste 12 Sur 0 -- -- 92
2018-11-21 20:00:00 4.2 8 Sur 18 Sudoeste 0 -- -- 91
2018-11-21 19:00:00 5.3 17 Sudoeste 28 Sudoeste 0 -- -- 87
2018-11-21 18:00:00 6.3 20 Sudoeste 33 Sudoeste 0 -- -- 81
2018-11-21 17:00:00 7.4 17 Sudoeste 27 Noroeste 0 -- -- 79
2018-11-21 16:00:00 7.7 22 Sudoeste 36 Oeste 0 -- -- 78
2018-11-21 15:00:00 6.2 9 Oeste 33 Noroeste 0.8 -- -- 88
2018-11-21 14:00:00 6.9 19 Sudoeste 39 Sudoeste 0.2 -- -- 83
2018-11-21 13:00:00 8.1 21 Sudoeste 28 Sudoeste 0 -- -- 82
2018-11-21 12:00:00 6.3 19 Oeste 32 Oeste 0 -- -- 86
2018-11-21 11:00:00 6.6 22 Sudoeste 33 Oeste 0 -- -- 84
2018-11-21 10:00:00 7.2 18 Sudoeste 24 Sudoeste 0 -- -- 87
2018-11-21 09:00:00 5.6 12 Oeste 19 Oeste 0 -- -- 90
2018-11-21 08:00:00 5 11 Oeste 29 Oeste 0 -- -- 89
2018-11-21 07:00:00 5.7 21 Oeste 32 Sudoeste 0 -- -- 92
2018-11-21 06:00:00 5.5 18 Oeste 27 Oeste 0 -- -- 92
2018-11-21 05:00:00 5.5 15 Oeste 26 Oeste 0.2 -- -- 92
2018-11-21 04:00:00 5.1 14 Sudoeste 23 Sudoeste 0 -- -- 94
2018-11-21 03:00:00 5.2 14 Oeste 21 Oeste 0 -- -- 93
2018-11-21 02:00:00 5.2 11 Oeste 25 Oeste 0 -- -- 93
2018-11-21 01:00:00 5.2 17 Oeste 27 Oeste 0.2 -- -- 92
2018-11-21 00:00:00 5.2 13 Oeste 24 Oeste 0 -- -- 93
2018-11-20 23:00:00 5.4 15 Oeste 24 Oeste 0.4 -- -- 94
2018-11-20 22:00:00 5.5 15 Oeste 26 Oeste 0 -- -- 91
2018-11-20 21:00:00 5.6 17 Oeste 29 Noroeste 0 -- -- 91
2018-11-20 20:00:00 5.4 4 Oeste 30 Oeste 0.2 -- -- 89
2018-11-20 19:00:00 5.1 10 Noroeste 17 Noroeste 0 -- -- 92
2018-11-20 18:00:00 4.9 8 Oeste 36 Noroeste 1 -- -- 92
2018-11-20 17:00:00 7.4 18 Sudoeste 28 Oeste 0 -- -- 84
2018-11-20 16:00:00 7.7 14 Sudoeste 33 Sudoeste 0 -- -- 82
2018-11-20 15:00:00 8 24 Oeste 35 Oeste 0 -- -- 77
2018-11-20 14:00:00 7.3 17 Oeste 35 Noroeste 0 -- -- 85
2018-11-20 13:00:00 6.4 18 Noroeste 35 Oeste 0.6 -- -- 88
2018-11-20 12:00:00 6 31 Oeste 51 Oeste 0.6 -- -- 87
2018-11-20 11:00:00 8.1 18 Sudoeste 24 Sudoeste 0 -- -- 91
2018-11-20 10:00:00 6.4 6 Oeste 29 Noroeste 1.4 -- -- 95
2018-11-20 09:00:00 6.1 14 Oeste 20 Oeste 0.4 -- -- 96
2018-11-20 08:00:00 5.9 6 Sur 12 Oeste 0.2 -- -- 96
2018-11-20 07:00:00 6.2 8 Oeste 26 Noroeste 0.4 -- -- 94
2018-11-20 06:00:00 6.5 15 Oeste 28 Noroeste 0.6 -- -- 94
2018-11-20 05:00:00 6.5 9 Noroeste 18 Oeste 0 -- -- 94
2018-11-20 04:00:00 6.3 12 Oeste 22 Noroeste 0.2 -- -- 95
2018-11-20 03:00:00 6.3 12 Noroeste 19 Noroeste 0 -- -- 95
2018-11-20 02:00:00 6 11 Noroeste 22 Noroeste 0 -- -- 94
2018-11-20 01:00:00 6 14 Noroeste 20 Noroeste 0 -- -- 94
2018-11-20 00:00:00 5.1 6 Sur 9 Sur 0 -- -- 94
2018-11-19 23:00:00 5.4 5 Sudeste 6 Sudeste 0 -- -- 94
2018-11-19 22:00:00 6 3 Oeste 14 Norte 0.2 -- -- 90
2018-11-19 21:00:00 6.2 3 Sur 6 Sur 0 -- -- 94
2018-11-19 20:00:00 6.3 2 Sudeste 5 Sudoeste 0.6 -- -- 94
2018-11-19 19:00:00 6.8 0 Calma 21 Norte 0.2 -- -- 86
2018-11-19 18:00:00 7 19 Norte 26 Norte 0 -- -- 82
2018-11-19 17:00:00 9.4 10 Oeste 14 Oeste 0 -- -- 71
2018-11-19 16:00:00 10.9 8 Oeste 14 Noroeste 0 -- -- 65
2018-11-19 15:00:00 9.8 8 Noroeste 15 Noroeste 0 -- -- 70
2018-11-19 14:00:00 10.2 4 Norte 12 Norte 0 -- -- 70
2018-11-19 13:00:00 8.9 6 Norte 13 Norte 0 -- -- 77
2018-11-19 12:00:00 7.9 10 Nordeste 14 Nordeste 0 -- -- 85
2018-11-19 11:00:00 7.1 2 Este 5 Nordeste 0 -- -- 91
2018-11-19 10:00:00 6.6 2 Sudeste 12 Sudeste 0 -- -- 94
2018-11-19 09:00:00 6.3 7 Sudeste 11 Sudeste 0 -- -- 93
2018-11-19 08:00:00 6 5 Este 9 Este 0 -- -- 95
2018-11-19 07:00:00 5.8 6 Sur 14 Sur 0 -- -- 95
2018-11-19 06:00:00 5.8 9 Sudeste 18 Este 0 -- -- 95
2018-11-19 05:00:00 5.6 13 Sudeste 28 Sudeste 0 -- -- 98
2018-11-19 04:00:00 5.6 19 Sudeste 27 Sudeste 0 -- -- 97
2018-11-19 03:00:00 5.9 16 Sudeste 29 Sudeste 0 -- -- 96
2018-11-19 02:00:00 5.8 16 Sudeste 31 Sudeste 0 -- -- 98
2018-11-19 01:00:00 6.1 20 Sudeste 31 Sudeste 0 -- -- 95
2018-11-19 00:00:00 6.1 25 Sudeste 39 Sudeste 0 -- -- 96
2018-11-18 23:00:00 6.3 29 Sudeste 43 Sudeste 0 -- -- 94
2018-11-18 22:00:00 6.1 30 Sudeste 45 Sudeste 0.4 -- -- 93
2018-11-18 21:00:00 6.4 19 Sudeste 31 Sudeste 0.2 -- -- 95
2018-11-18 20:00:00 6.4 20 Sudeste 30 Sudeste 0.4 -- -- 95
2018-11-18 19:00:00 6.6 26 Sudeste 38 Sudeste 0.4 -- -- 94
2018-11-18 18:00:00 6.2 31 Sudeste 44 Sudeste 0 -- -- 99
2018-11-18 17:00:00 6.2 31 Sudeste 45 Sudeste 0 -- -- 98
2018-11-18 16:00:00 7.2 29 Sudeste 41 Sudeste 0 -- -- 94
2018-11-18 15:00:00 7.2 26 Este 37 Este 0 -- -- 96
2018-11-18 14:00:00 8.4 24 Este 34 Este 0 -- -- 93
2018-11-18 13:00:00 8.6 17 Sudeste 27 Sudeste 0 -- -- 89
2018-11-18 12:00:00 7.4 16 Sudeste 25 Sudeste 0 -- -- 99
2018-11-18 11:00:00 7.8 16 Sudeste 22 Sudeste 0 -- -- 99
2018-11-18 10:00:00 7.9 4 Sur 6 Sudeste 0 -- -- 99
2018-11-18 09:00:00 6.8 0 Calma 5 Sudeste 0 -- -- 100
2018-11-18 08:00:00 6.8 3 Sur 5 Sudeste 0 -- -- 100
2018-11-18 07:00:00 6.9 2 Sur 4 Sudeste 0 -- -- 99
2018-11-18 06:00:00 7 4 Sur 12 Oeste 0 -- -- 99
2018-11-18 05:00:00 6.8 4 Sudoeste 8 Sudoeste 0 -- -- 99
2018-11-18 04:00:00 6.8 0 Calma 5 Nordeste 0 -- -- 99
2018-11-18 03:00:00 6 5 Norte 7 Nordeste 0 -- -- 99
2018-11-18 02:00:00 5.4 5 Norte 9 Norte 0 -- -- 99
2018-11-18 01:00:00 4.8 0 Calma 7 Este 0 -- -- 100
2018-11-18 00:00:00 5.9 7 Sudeste 10 Este 0 -- -- 99
2018-11-17 23:00:00 6.1 7 Sudeste 13 Sudeste 0 -- -- 97
2018-11-17 22:00:00 6.5 6 Sudeste 8 Sudeste 0 -- -- 96
2018-11-17 21:00:00 7.3 6 Sudeste 8 Sudeste 0 -- -- 92
2018-11-17 20:00:00 7.7 0 Calma 6 Sudeste 0 -- -- 87
2018-11-17 19:00:00 8.9 4 Sudeste -- -- 0 -- -- 82
2018-11-17 18:00:00 10.9 2 Noroeste 4 Nordeste 0 -- -- 75
2018-11-17 17:00:00 12.9 0 Calma 9 Nordeste 0 -- -- 67
2018-11-17 16:00:00 15.6 4 Noroeste 9 Oeste 0 -- -- 58
2018-11-17 15:00:00 14.5 2 Noroeste 10 Oeste 0 -- -- 63
2018-11-17 14:00:00 12 4 Norte 14 Oeste 0 -- -- 78
2018-11-17 13:00:00 11 8 Oeste 14 Oeste 0.2 -- -- 87
2018-11-17 12:00:00 9.5 4 Oeste 9 Sudoeste 0 -- -- 97
2018-11-17 11:00:00 7.9 3 Oeste 7 Oeste 0 -- -- 98
2018-11-17 10:00:00 6.9 3 Sudoeste 7 Oeste 0 -- -- 99
2018-11-17 09:00:00 6.1 5 Oeste 8 Noroeste 0 -- -- 99
2018-11-17 08:00:00 6.4 5 Este 9 Este 0 -- -- 99
2018-11-17 07:00:00 6.8 0 Calma 4 Sudeste 0 -- -- 99
2018-11-17 06:00:00 6.6 0 Calma 5 Sudeste 0 -- -- 98
2018-11-17 05:00:00 7.2 6 Sudeste 14 Este 0 -- -- 98
2018-11-17 04:00:00 6.9 4 Sudeste 6 Sudeste 0 -- -- 98
2018-11-17 03:00:00 7.2 3 Sur 18 Sur 0 -- -- 97
2018-11-17 02:00:00 8.5 18 Sudeste 25 Sudeste 0 -- -- 96
2018-11-17 01:00:00 8.2 10 Sudeste 17 Sudeste 0 -- -- 96
2018-11-17 00:00:00 8.6 10 Sudeste 23 Sudeste 0 -- -- 95
2018-11-16 23:00:00 8.9 14 Sudeste 20 Sudeste 0 -- -- 97
2018-11-16 22:00:00 9.1 9 Sudeste 19 Sudeste 0 -- -- 95
2018-11-16 21:00:00 9.7 7 Sur 18 Sur 0 -- -- 94
2018-11-16 20:00:00 10.4 12 Sudoeste 29 Este 0 -- -- 92
2018-11-16 19:00:00 10 21 Este 30 Este 0 -- -- 93
2018-11-16 18:00:00 10.2 17 Este 22 Este 0 -- -- 90
2018-11-16 17:00:00 12 12 Sudeste 22 Sudeste 0 -- -- 81
2018-11-16 16:00:00 13.3 12 Sudeste 24 Sudeste 0 -- -- 74
2018-11-16 15:00:00 14.5 15 Sudeste 26 Sur 0 -- -- 70
2018-11-16 14:00:00 14.2 15 Sur 29 Sur 0 -- -- 69
2018-11-16 13:00:00 14.9 14 Sur 27 Sudeste 0 -- -- 68
2018-11-16 12:00:00 12.8 19 Sur 28 Sudeste 0 -- -- 76
2018-11-16 11:00:00 12 14 Sur 32 Sur 0 -- -- 83
2018-11-16 10:00:00 10.2 9 Sudeste 18 Sudeste 0 -- -- 94
2018-11-16 09:00:00 9.3 9 Sudeste 15 Sudeste 0 -- -- 97
2018-11-16 08:00:00 9 12 Sudeste 15 Sudeste 0 -- -- 97
2018-11-16 07:00:00 9.3 7 Sudeste 12 Sudeste 0 -- -- 96
2018-11-16 06:00:00 9.3 8 Sudeste 12 Sudeste 0 -- -- 96
2018-11-16 05:00:00 9.3 0 Calma 9 Sudeste 0 -- -- 96
2018-11-16 04:00:00 9.2 5 Sudeste 8 Sudeste 0 -- -- 95
2018-11-16 03:00:00 8.9 6 Este 9 Sudeste 0 -- -- 95
2018-11-16 02:00:00 9.1 5 Sudeste 13 Este 0 -- -- 94
2018-11-16 01:00:00 9.4 9 Este 16 Sudeste 0 -- -- 93
2018-11-16 00:00:00 9.1 7 Este 14 Sudeste 0 -- -- 94
2018-11-15 23:00:00 9.2 12 Este 17 Sudeste 0 -- -- 93
2018-11-15 22:00:00 9 11 Sudeste 19 Sudeste 0 -- -- 93
2018-11-15 21:00:00 9.3 6 Sudeste 22 Este 0 -- -- 94
2018-11-15 20:00:00 10 18 Este 26 Este 0 -- -- 92
2018-11-15 19:00:00 10.2 16 Sudeste 26 Sudeste 0 -- -- 90
2018-11-15 18:00:00 10.3 16 Este 28 Sudeste 0 -- -- 88
2018-11-15 17:00:00 12.9 18 Sudeste 27 Este 0 -- -- 76
2018-11-15 16:00:00 12.7 13 Sudeste 21 Sudeste 0 -- -- 77
2018-11-15 15:00:00 13.1 14 Sudeste 21 Sudeste 0 -- -- 75
2018-11-15 14:00:00 12.6 15 Sudeste 23 Sudeste 0 -- -- 78
2018-11-15 13:00:00 12.9 14 Sudeste 24 Sudeste 0 -- -- 77
2018-11-15 12:00:00 12.6 14 Sur 23 Sudeste 0 -- -- 77
2018-11-15 11:00:00 11.9 11 Sudeste 21 Sudeste 0 -- -- 82
2018-11-15 10:00:00 10.5 11 Sudeste 18 Sudeste 0 -- -- 96
2018-11-15 09:00:00 7.4 0 Calma 6 Sur 0 -- -- 97
2018-11-15 08:00:00 6.8 7 Sur 24 Sudeste 0 -- -- 97
2018-11-15 07:00:00 8.9 17 Sudeste 23 Sur 0 -- -- 95
2018-11-15 06:00:00 9 14 Sudeste 23 Sudeste 0 -- -- 96
2018-11-15 05:00:00 9.3 6 Sudeste 14 Sudeste 0 -- -- 95
2018-11-15 04:00:00 9.7 10 Sudeste 16 Sudeste 0 -- -- 92
2018-11-15 03:00:00 9.5 6 Sur 14 Sudeste 0 -- -- 96
2018-11-15 02:00:00 9.2 8 Sudeste 29 Sudeste 0 -- -- 96
2018-11-15 01:00:00 9.4 18 Sudeste 32 Sudeste 0 -- -- 96
2018-11-15 00:00:00 9.1 15 Sudeste 29 Sudeste 0 -- -- 96
2018-11-14 23:00:00 9.9 19 Sudeste 33 Sudeste 0 -- -- 93
2018-11-14 22:00:00 10.2 20 Sudeste 28 Sudeste 0 -- -- 93
2018-11-14 21:00:00 10.1 19 Sudeste 34 Sudeste 0 -- -- 93
2018-11-14 20:00:00 10.4 21 Sudeste 33 Sudeste 0 -- -- 92
2018-11-14 19:00:00 10.5 18 Sudeste 31 Sudeste 0 -- -- 91
2018-11-14 18:00:00 11 21 Sudeste 31 Sudeste 0 -- -- 87
2018-11-14 17:00:00 13.2 18 Sudeste 23 Sudeste 0 -- -- 78
2018-11-14 16:00:00 14.8 17 Sudeste 27 Sudeste 0 -- -- 66
2018-11-14 15:00:00 14.9 16 Sur 27 Sur 0 -- -- 68
2018-11-14 14:00:00 14.2 16 Sur 26 Sudeste 0 -- -- 71
2018-11-14 13:00:00 13.9 14 Sur 25 Sur 0 -- -- 73
2018-11-14 12:00:00 12 10 Sudoeste 14 Sudoeste 0 -- -- 96
2018-11-14 11:00:00 9.7 0 Calma 6 Norte 0 -- -- 96
2018-11-14 10:00:00 7.7 4 Norte 7 Norte 0 -- -- 98
2018-11-14 09:00:00 7.2 2 Sudeste 5 Este 0 -- -- 99
2018-11-14 08:00:00 6.8 2 Nordeste 4 Este 0 -- -- 99
2018-11-14 07:00:00 6.9 0 Calma 4 Nordeste 0 -- -- 99
2018-11-14 06:00:00 7 3 Oeste 5 Oeste 0 -- -- 99
2018-11-14 05:00:00 7.3 0 Calma 3 Sur 0 -- -- 99
2018-11-14 04:00:00 7.4 5 Sudeste 9 Sudeste 0 -- -- 98
2018-11-14 03:00:00 7.5 6 Sudeste 15 Sudeste 0 -- -- 97
2018-11-14 02:00:00 7.9 7 Sudeste 13 Este 0 -- -- 97
2018-11-14 01:00:00 8.2 9 Este 13 Este 0 -- -- 97
2018-11-14 00:00:00 8 8 Este 12 Sudeste 0 -- -- 96
2018-11-13 23:00:00 8.1 7 Sudeste 13 Sudeste 0 -- -- 94
2018-11-13 22:00:00 7.8 9 Sudeste 13 Sudeste 0 -- -- 93
2018-11-13 21:00:00 8.2 4 Sur 14 Sudeste 0 -- -- 92
2018-11-13 20:00:00 9.2 14 Sudeste 22 Sudeste 0 -- -- 88
2018-11-13 19:00:00 9.2 10 Sudeste 16 Sudeste 0 -- -- 88
2018-11-13 18:00:00 9.8 8 Este 23 Sudeste 0 -- -- 85
2018-11-13 17:00:00 11.6 20 Sudeste 26 Sudeste 0 -- -- 77
2018-11-13 16:00:00 11.8 20 Sudeste 27 Sudeste 0 -- -- 79
2018-11-13 15:00:00 13.3 16 Sudeste 27 Sudeste 0 -- -- 76
2018-11-13 14:00:00 13.6 19 Sudeste 26 Sudeste 0 -- -- 72
2018-11-13 13:00:00 14.2 2 Norte 12 Nordeste 0 -- -- 75
2018-11-13 12:00:00 13.2 6 Nordeste 16 Sudeste 0 -- -- 79
2018-11-13 11:00:00 11.4 8 Sudeste 13 Sudeste 0 -- -- 86
2018-11-13 10:00:00 9.8 6 Sudeste 15 Sudeste 0 -- -- 96
2018-11-13 09:00:00 8.8 10 Sudeste 16 Sudeste 0 -- -- 98
2018-11-13 08:00:00 8.3 9 Sur 15 Sudeste 0 -- -- 98
2018-11-13 07:00:00 8.5 9 Sudeste 18 Este 0 -- -- 97
2018-11-13 06:00:00 6.9 7 Norte 10 Nordeste 0 -- -- 97
2018-11-13 05:00:00 7.5 8 Nordeste 10 Norte 0 -- -- 97
2018-11-13 04:00:00 8.1 5 Norte 9 Norte 0 -- -- 96
2018-11-13 03:00:00 8.1 0 Calma 9 Norte 0 -- -- 97
2018-11-13 02:00:00 8 5 Norte 12 Nordeste 0 -- -- 96
2018-11-13 01:00:00 8.4 5 Norte 11 Nordeste 0 -- -- 95
2018-11-13 00:00:00 9.9 8 Norte 16 Oeste 0 -- -- 90
2018-11-12 23:00:00 10 4 Norte 10 Nordeste 0 -- -- 89
2018-11-12 22:00:00 10.2 4 Nordeste 8 Norte 0 -- -- 87
2018-11-12 21:00:00 10.1 6 Norte 10 Este 0 -- -- 90
2018-11-12 20:00:00 10.5 3 Norte 12 Este 0 -- -- 89
2018-11-12 19:00:00 11.1 9 Este 12 Este 0 -- -- 87
2018-11-12 18:00:00 11.6 6 Norte 15 Noroeste 0 -- -- 79
2018-11-12 17:00:00 15.3 5 Sudoeste 18 Sudoeste 0 -- -- 60
2018-11-12 16:00:00 15.1 13 Sudoeste 23 Sudoeste 0 -- -- 59
2018-11-12 15:00:00 15.7 18 Sudoeste 27 Sur 0 -- -- 55
2018-11-12 14:00:00 14.8 20 Sudoeste 28 Sur 0 -- -- 61
2018-11-12 13:00:00 14.2 18 Sudoeste 29 Sur 0 -- -- 61
2018-11-12 12:00:00 13.5 14 Sur 20 Sur 0 -- -- 69
2018-11-12 11:00:00 12.9 14 Sur 19 Sur 0 -- -- 76
2018-11-12 10:00:00 10.1 10 Sur 19 Sur 0 -- -- 86
2018-11-12 09:00:00 8.5 14 Sur 20 Sur 0 -- -- 92
2018-11-12 08:00:00 8.7 15 Sur 21 Sur 0 -- -- 90
2018-11-12 07:00:00 8.8 12 Sur 17 Oeste 0 -- -- 90
2018-11-12 06:00:00 9.6 12 Sudoeste 21 Sur 0 -- -- 86
2018-11-12 05:00:00 9.3 10 Sur 24 Sur 0 -- -- 90
2018-11-12 04:00:00 8.6 14 Sur 28 Sur 0 -- -- 90
2018-11-12 03:00:00 8.6 14 Sur 22 Sur 0 -- -- 90
2018-11-12 02:00:00 8.8 15 Sudoeste 29 Sudoeste 0 -- -- 88
2018-11-12 01:00:00 10.4 22 Sudoeste 35 Sur 0 -- -- 83
2018-11-12 00:00:00 11.5 28 Sudoeste 43 Sudoeste 0 -- -- 79
2018-11-11 23:00:00 9.6 22 Sur 36 Sur 0 -- -- 87
2018-11-11 22:00:00 8.5 8 Noroeste 25 Sur 0 -- -- 90
2018-11-11 21:00:00 10.1 6 Sudeste 28 Sur 0 -- -- 84
2018-11-11 20:00:00 11 24 Sur 31 Sur 0 -- -- 82
2018-11-11 19:00:00 11.6 9 Sur 21 Sur 0 -- -- 81
2018-11-11 18:00:00 11.3 14 Sudoeste 27 Sudoeste 0 -- -- 85
2018-11-11 17:00:00 11.8 24 Sudoeste 42 Sudoeste 0 -- -- 82
2018-11-11 16:00:00 13.6 34 Sudoeste 44 Sudoeste 0 -- -- 72
2018-11-11 15:00:00 13.4 27 Sudoeste 48 Sudoeste 0 -- -- 74
2018-11-11 14:00:00 13.3 37 Sudoeste 47 Sudoeste 0 -- -- 75
2018-11-11 13:00:00 14 28 Sudoeste 39 Sudoeste 0 -- -- 75
2018-11-11 12:00:00 12.6 25 Sudoeste 36 Oeste 0 -- -- 81
2018-11-11 11:00:00 10.7 18 Sudoeste 34 Oeste 0 -- -- 92
2018-11-11 10:00:00 10.4 23 Oeste 36 Oeste 0 -- -- 92
2018-11-11 09:00:00 10.5 22 Oeste 35 Sudoeste 0 -- -- 92
2018-11-11 08:00:00 10.5 21 Oeste 29 Sudoeste 0 -- -- 93
2018-11-11 07:00:00 9.8 18 Sudoeste 26 Sudoeste 0 -- -- 95
2018-11-11 06:00:00 9.5 19 Sudoeste 24 Sudoeste 0 -- -- 98
2018-11-11 05:00:00 9.3 10 Sudoeste 22 Sur 0 -- -- 97
2018-11-11 04:00:00 9.4 16 Sur 19 Sur 0 -- -- 95
2018-11-11 03:00:00 9.7 10 Sudoeste 23 Oeste 0 -- -- 94
2018-11-11 02:00:00 9.5 10 Oeste 18 Oeste 0 -- -- 95
2018-11-11 01:00:00 9.7 13 Oeste 20 Oeste 0 -- -- 94
2018-11-11 00:00:00 10.1 16 Oeste 30 Oeste 0 -- -- 91
2018-11-10 23:00:00 10.3 19 Oeste 33 Oeste 0 -- -- 89
2018-11-10 22:00:00 10 22 Oeste 45 Oeste 0 -- -- 93
2018-11-10 21:00:00 10.1 24 Oeste 36 Oeste 0.2 -- -- 92
2018-11-10 20:00:00 9.8 26 Oeste 40 Oeste 0 -- -- 94
2018-11-10 19:00:00 9.7 24 Oeste 38 Oeste 0.8 -- -- 95
2018-11-10 18:00:00 9.5 16 Sudoeste 40 Oeste 1.4 -- -- 95
2018-11-10 17:00:00 9.9 30 Oeste 49 Sudoeste 0.2 -- -- 91
2018-11-10 16:00:00 10.7 31 Oeste 54 Oeste 0 -- -- 85
2018-11-10 15:00:00 10.4 42 Oeste 60 Sudoeste 0 -- -- 86
2018-11-10 14:00:00 9.8 32 Sudoeste 53 Sudoeste 0 -- -- 90
2018-11-10 13:00:00 11.1 36 Sudoeste 53 Sudoeste 0 -- -- 83
2018-11-10 12:00:00 10.6 30 Oeste 48 Sudoeste 0 -- -- 82
2018-11-10 11:00:00 9.9 38 Sudoeste 51 Sudoeste 0 -- -- 85
2018-11-10 10:00:00 8.7 27 Sudoeste 47 Sudoeste 0 -- -- 89
2018-11-10 09:00:00 8.1 27 Sudoeste 43 Sudoeste 0 -- -- 90
2018-11-10 08:00:00 7.9 32 Sudoeste 48 Sudoeste 0 -- -- 89
2018-11-10 07:00:00 7.7 31 Sudoeste 44 Sudoeste 0 -- -- 90
2018-11-10 06:00:00 7.1 24 Oeste 39 Oeste 0 -- -- 93
2018-11-10 05:00:00 6.9 24 Sudoeste 37 Sudoeste 0 -- -- 94
2018-11-10 04:00:00 6.6 21 Sudoeste 39 Oeste 0 -- -- 93
2018-11-10 03:00:00 6.6 21 Sudoeste 39 Oeste 0 -- -- 91
2018-11-10 02:00:00 6.6 23 Oeste 36 Sudoeste 0 -- -- 88
2018-11-10 01:00:00 6.6 12 Oeste 21 Oeste 0 -- -- 87
2018-11-10 00:00:00 6.3 12 Sudoeste 20 Oeste 0 -- -- 87
2018-11-09 23:00:00 6.3 9 Oeste 21 Oeste 0 -- -- 86
2018-11-09 22:00:00 6.2 12 Noroeste 18 Noroeste 0 -- -- 85
2018-11-09 21:00:00 5.7 7 Oeste 17 Noroeste 0 -- -- 87
2018-11-09 20:00:00 5.6 12 Noroeste 21 Noroeste 0 -- -- 83
2018-11-09 19:00:00 5.2 3 Noroeste 19 Noroeste 0 -- -- 79
2018-11-09 18:00:00 5.8 16 Noroeste 41 Noroeste 0 -- -- 74
2018-11-09 17:00:00 7.5 26 Noroeste 42 Noroeste 0 -- -- 68
2018-11-09 16:00:00 7.1 31 Noroeste 48 Noroeste 0 -- -- 66
2018-11-09 15:00:00 6.1 27 Noroeste 45 Noroeste 0 -- -- 73
2018-11-09 14:00:00 5.9 26 Noroeste 57 Noroeste 0 -- -- 75
2018-11-09 13:00:00 5.7 35 Noroeste 58 Noroeste 0 -- -- 80
2018-11-09 12:00:00 5.7 27 Noroeste 49 Noroeste 0 -- -- 81
2018-11-09 11:00:00 5.6 28 Noroeste 46 Noroeste 0 -- -- 82
2018-11-09 10:00:00 4.8 24 Noroeste 39 Noroeste 0 -- -- 87
2018-11-09 09:00:00 3.6 23 Noroeste 39 Noroeste 0 -- -- 91
2018-11-09 08:00:00 2.8 22 Noroeste 39 Noroeste 0 -- -- 93
2018-11-09 07:00:00 2.8 19 Noroeste 33 Noroeste 0 -- -- 93
2018-11-09 06:00:00 3 16 Noroeste 27 Noroeste 0 -- -- 92
2018-11-09 05:00:00 3.5 18 Noroeste 33 Noroeste 0 -- -- 91
2018-11-09 04:00:00 3.6 21 Noroeste 34 Noroeste 0 -- -- 89
2018-11-09 03:00:00 3.6 15 Noroeste 28 Noroeste 0 -- -- 91
2018-11-09 02:00:00 3.5 14 Norte 32 Noroeste 0 -- -- 92
2018-11-09 01:00:00 4.4 23 Noroeste 36 Norte 0.4 -- -- 88
2018-11-09 00:00:00 5.1 17 Noroeste 30 Noroeste 0.2 -- -- 94